PWSweather.com
Personal Weather Stations
Station Observations
KIDNAMPA57
Canyon County Idaho, Nampa, ID 83687

Canyon County IdahoNampa, ID 83687

Lat: 43.587235, Lon: -116.49831979999999

Elevation: 2615

Station Type: Davis Vantage Pro 2

www.rockinglweather.com

High Low Average
Temperature 44.2°F6.8°C 36.7°F2.6°C 40.4°F4.7°C
Dew Point 42.0°F5.6°C 34.3°F1.3°C 38.0°F3.3°C
Winds 13.0 mph 20.9 kmh Calm Calm 5.0 mph SE8.0 kmh SE
Wind Gusts 20.0 mph32.2 kmh -- 11.0 mph17.7 kmh
Humidity 94% 83% 91%
Pressure 30.22 in1023.4 mb 30.03 in1016.9 mb -
Precipitation 0.00 in0.0 mm - -
Hour Temp Dew Point Humidity Winds Wind Gusts Pressure Precip Precip Rate Daily Precip Total
12:05 AM 40.3°F4.6°C 32.4°F0.2°C 73% Calm Calm 2.0 mph3.2 kmh 30.19 in1022.4 mb 0.00 in0.0 mm 0.00 in0.0 mm 0.00 in0.0 mm
12:25 AM 39.9°F4.4°C 33.6°F0.9°C 78% 2.0 mph E3.2 kmh E 5.0 mph8.0 kmh 30.20 in1022.7 mb 0.00 in0.0 mm 0.00 in0.0 mm 0.00 in0.0 mm
12:35 AM 39.6°F4.2°C 33.6°F0.9°C 79% 4.0 mph E6.4 kmh E 7.0 mph11.3 kmh 30.19 in1022.4 mb 0.00 in0.0 mm 0.00 in0.0 mm 0.00 in0.0 mm
12:45 AM 39.4°F4.1°C 34.4°F1.3°C 82% 3.0 mph ESE4.8 kmh ESE 7.0 mph11.3 kmh 30.19 in1022.4 mb 0.01 in0.3 mm 0.06 in1.5 mm 0.01 in0.3 mm
12:55 AM 38.9°F3.8°C 34.5°F1.4°C 84% Calm Calm 7.0 mph11.3 kmh 30.20 in1022.7 mb 0.02 in0.5 mm 0.06 in1.5 mm 0.02 in0.5 mm
01:00 AM 38.8°F3.8°C 34.7°F1.5°C 85% 2.0 mph SE3.2 kmh SE 7.0 mph11.3 kmh 30.20 in1022.7 mb 0.02 in0.5 mm 0.00 in0.0 mm 0.02 in0.5 mm
01:05 AM 38.7°F3.7°C 34.9°F1.6°C 86% 1.0 mph ESE1.6 kmh ESE 4.0 mph6.4 kmh 30.20 in1022.7 mb 0.03 in0.8 mm 0.12 in3.0 mm 0.03 in0.8 mm
01:10 AM 38.6°F3.7°C 34.8°F1.6°C 86% 4.0 mph SE6.4 kmh SE 5.0 mph8.0 kmh 30.20 in1022.7 mb 0.03 in0.8 mm 0.00 in0.0 mm 0.03 in0.8 mm
01:15 AM 38.5°F3.6°C 35.0°F1.7°C 87% 2.0 mph ESE3.2 kmh ESE 5.0 mph8.0 kmh 30.20 in1022.7 mb 0.03 in0.8 mm 0.00 in0.0 mm 0.03 in0.8 mm
01:20 AM 38.5°F3.6°C 35.3°F1.8°C 88% 2.0 mph SE3.2 kmh SE 6.0 mph9.7 kmh 30.20 in1022.7 mb 0.04 in1.0 mm 0.12 in3.0 mm 0.04 in1.0 mm
01:25 AM 38.5°F3.6°C 35.3°F1.8°C 88% 1.0 mph SE1.6 kmh SE 6.0 mph9.7 kmh 30.20 in1022.7 mb 0.05 in1.3 mm 0.12 in3.0 mm 0.05 in1.3 mm
01:30 AM 38.5°F3.6°C 35.6°F2.0°C 89% 1.0 mph SE1.6 kmh SE 6.0 mph9.7 kmh 30.20 in1022.7 mb 0.06 in1.5 mm 0.12 in3.0 mm 0.06 in1.5 mm
01:35 AM 38.4°F3.6°C 35.5°F1.9°C 89% 1.0 mph SE1.6 kmh SE 6.0 mph9.7 kmh 30.20 in1022.7 mb 0.07 in1.8 mm 0.12 in3.0 mm 0.07 in1.8 mm
01:40 AM 38.4°F3.6°C 35.7°F2.1°C 90% 4.0 mph E6.4 kmh E 12.0 mph19.3 kmh 30.20 in1022.7 mb 0.07 in1.8 mm 0.00 in0.0 mm 0.07 in1.8 mm
01:45 AM 38.4°F3.6°C 35.7°F2.1°C 90% 4.0 mph ESE6.4 kmh ESE 14.0 mph22.5 kmh 30.19 in1022.4 mb 0.08 in2.0 mm 0.12 in3.0 mm 0.08 in2.0 mm
01:50 AM 38.3°F3.5°C 35.6°F2.0°C 90% 4.0 mph E6.4 kmh E 11.0 mph17.7 kmh 30.19 in1022.4 mb 0.07 in1.8 mm 0.00 in0.0 mm 0.08 in2.0 mm
01:55 AM 38.2°F3.4°C 35.5°F1.9°C 90% 2.0 mph SE3.2 kmh SE 11.0 mph17.7 kmh 30.19 in1022.4 mb 0.07 in1.8 mm 0.00 in0.0 mm 0.08 in2.0 mm
02:00 AM 38.2°F3.4°C 35.5°F1.9°C 90% 11.0 mph SSE17.7 kmh SSE 11.0 mph17.7 kmh 30.19 in1022.4 mb 0.07 in1.8 mm 0.00 in0.0 mm 0.08 in2.0 mm
02:05 AM 38.2°F3.4°C 35.5°F1.9°C 90% 8.0 mph SE12.9 kmh SE 11.0 mph17.7 kmh 30.18 in1022.0 mb 0.06 in1.5 mm 0.00 in0.0 mm 0.08 in2.0 mm
02:10 AM 38.2°F3.4°C 35.5°F1.9°C 90% 6.0 mph SE9.7 kmh SE 12.0 mph19.3 kmh 30.18 in1022.0 mb 0.06 in1.5 mm 0.00 in0.0 mm 0.08 in2.0 mm
02:15 AM 38.2°F3.4°C 35.5°F1.9°C 90% 7.0 mph SE11.3 kmh SE 17.0 mph27.4 kmh 30.18 in1022.0 mb 0.06 in1.5 mm 0.00 in0.0 mm 0.08 in2.0 mm
02:20 AM 37.1°F2.8°C 34.4°F1.3°C 90% 7.0 mph E11.3 kmh E 13.0 mph20.9 kmh 30.18 in1022.0 mb 0.06 in1.5 mm 0.00 in0.0 mm 0.08 in2.0 mm
02:25 AM 36.9°F2.7°C 34.5°F1.4°C 91% 3.0 mph SE4.8 kmh SE 13.0 mph20.9 kmh 30.18 in1022.0 mb 0.06 in1.5 mm 0.00 in0.0 mm 0.08 in2.0 mm
02:30 AM 36.8°F2.7°C 34.4°F1.3°C 91% 6.0 mph ESE9.7 kmh ESE 13.0 mph20.9 kmh 30.18 in1022.0 mb 0.06 in1.5 mm 0.00 in0.0 mm 0.08 in2.0 mm
02:35 AM 36.7°F2.6°C 34.3°F1.3°C 91% 5.0 mph SE8.0 kmh SE 11.0 mph17.7 kmh 30.18 in1022.0 mb 0.04 in1.0 mm 0.00 in0.0 mm 0.08 in2.0 mm
02:40 AM 36.7°F2.6°C 34.3°F1.3°C 91% 3.0 mph E4.8 kmh E 11.0 mph17.7 kmh 30.18 in1022.0 mb 0.04 in1.0 mm 0.00 in0.0 mm 0.08 in2.0 mm
02:45 AM 36.7°F2.6°C 34.6°F1.4°C 92% 2.0 mph SE3.2 kmh SE 11.0 mph17.7 kmh 30.18 in1022.0 mb 0.04 in1.0 mm 0.00 in0.0 mm 0.08 in2.0 mm
02:50 AM 36.7°F2.6°C 34.3°F1.3°C 91% 6.0 mph SE9.7 kmh SE 10.0 mph16.1 kmh 30.18 in1022.0 mb 0.03 in0.8 mm 0.00 in0.0 mm 0.08 in2.0 mm
02:55 AM 36.7°F2.6°C 34.6°F1.4°C 92% 7.0 mph SE11.3 kmh SE 11.0 mph17.7 kmh 30.18 in1022.0 mb 0.03 in0.8 mm 0.00 in0.0 mm 0.08 in2.0 mm
03:00 AM 36.7°F2.6°C 34.6°F1.4°C 92% 1.0 mph SE1.6 kmh SE 11.0 mph17.7 kmh 30.18 in1022.0 mb 0.04 in1.0 mm 0.01 in0.3 mm 0.09 in2.3 mm
03:05 AM 36.7°F2.6°C 34.6°F1.4°C 92% 9.0 mph E14.5 kmh E 10.0 mph16.1 kmh 30.18 in1022.0 mb 0.04 in1.0 mm 0.00 in0.0 mm 0.09 in2.3 mm
03:10 AM 36.7°F2.6°C 34.6°F1.4°C 92% 6.0 mph ESE9.7 kmh ESE 12.0 mph19.3 kmh 30.18 in1022.0 mb 0.04 in1.0 mm 0.00 in0.0 mm 0.09 in2.3 mm
03:15 AM 36.7°F2.6°C 34.6°F1.4°C 92% 6.0 mph SE9.7 kmh SE 12.0 mph19.3 kmh 30.18 in1022.0 mb 0.05 in1.3 mm 0.12 in3.0 mm 0.10 in2.5 mm
03:20 AM 36.7°F2.6°C 34.6°F1.4°C 92% 7.0 mph ESE11.3 kmh ESE 10.0 mph16.1 kmh 30.19 in1022.4 mb 0.05 in1.3 mm 0.00 in0.0 mm 0.10 in2.5 mm
03:25 AM 36.7°F2.6°C 34.6°F1.4°C 92% 6.0 mph SE9.7 kmh SE 11.0 mph17.7 kmh 30.19 in1022.4 mb 0.06 in1.5 mm 0.12 in3.0 mm 0.11 in2.8 mm
03:30 AM 36.8°F2.7°C 34.7°F1.5°C 92% 4.0 mph SE6.4 kmh SE 11.0 mph17.7 kmh 30.19 in1022.4 mb 0.06 in1.5 mm 0.00 in0.0 mm 0.11 in2.8 mm
03:35 AM 36.9°F2.7°C 34.8°F1.6°C 92% 6.0 mph SE9.7 kmh SE 15.0 mph24.1 kmh 30.19 in1022.4 mb 0.04 in1.0 mm 0.00 in0.0 mm 0.11 in2.8 mm
03:40 AM 36.9°F2.7°C 34.8°F1.6°C 92% 2.0 mph SE3.2 kmh SE 15.0 mph24.1 kmh 30.19 in1022.4 mb 0.05 in1.3 mm 0.12 in3.0 mm 0.12 in3.0 mm
03:45 AM 37.0°F2.8°C 34.9°F1.6°C 92% 12.0 mph E19.3 kmh E 15.0 mph24.1 kmh 30.19 in1022.4 mb 0.05 in1.3 mm 0.00 in0.0 mm 0.12 in3.0 mm
03:50 AM 37.0°F2.8°C 34.9°F1.6°C 92% 8.0 mph SE12.9 kmh SE 13.0 mph20.9 kmh 30.19 in1022.4 mb 0.06 in1.5 mm 0.12 in3.0 mm 0.13 in3.3 mm
03:55 AM 37.0°F2.8°C 34.9°F1.6°C 92% 9.0 mph SE14.5 kmh SE 13.0 mph20.9 kmh 30.20 in1022.7 mb 0.07 in1.8 mm 0.12 in3.0 mm 0.14 in3.6 mm
04:00 AM 37.0°F2.8°C 34.9°F1.6°C 92% 7.0 mph ESE11.3 kmh ESE 14.0 mph22.5 kmh 30.20 in1022.7 mb 0.08 in2.0 mm 0.01 in0.3 mm 0.15 in3.8 mm
04:05 AM 36.9°F2.7°C 34.8°F1.6°C 92% 6.0 mph SE9.7 kmh SE 12.0 mph19.3 kmh 30.20 in1022.7 mb 0.07 in1.8 mm 0.00 in0.0 mm 0.15 in3.8 mm
04:10 AM 36.9°F2.7°C 34.8°F1.6°C 92% 2.0 mph SE3.2 kmh SE 12.0 mph19.3 kmh 30.20 in1022.7 mb 0.08 in2.0 mm 0.12 in3.0 mm 0.16 in4.1 mm
04:15 AM 36.8°F2.7°C 34.7°F1.5°C 92% 6.0 mph SE9.7 kmh SE 12.0 mph19.3 kmh 30.20 in1022.7 mb 0.09 in2.3 mm 0.12 in3.0 mm 0.17 in4.3 mm
04:20 AM 36.8°F2.7°C 34.7°F1.5°C 92% 5.0 mph ESE8.0 kmh ESE 13.0 mph20.9 kmh 30.21 in1023.0 mb 0.09 in2.3 mm 0.00 in0.0 mm 0.17 in4.3 mm
04:25 AM 36.8°F2.7°C 34.7°F1.5°C 92% 5.0 mph SE8.0 kmh SE 13.0 mph20.9 kmh 30.20 in1022.7 mb 0.10 in2.5 mm 0.12 in3.0 mm 0.18 in4.6 mm
04:30 AM 36.8°F2.7°C 35.0°F1.7°C 93% 3.0 mph SE4.8 kmh SE 14.0 mph22.5 kmh 30.20 in1022.7 mb 0.11 in2.8 mm 0.12 in3.0 mm 0.19 in4.8 mm
04:35 AM 36.8°F2.7°C 35.0°F1.7°C 93% 5.0 mph SE8.0 kmh SE 13.0 mph20.9 kmh 30.20 in1022.7 mb 0.11 in2.8 mm 0.00 in0.0 mm 0.19 in4.8 mm
04:40 AM 36.8°F2.7°C 35.0°F1.7°C 93% 5.0 mph SSE8.0 kmh SSE 13.0 mph20.9 kmh 30.20 in1022.7 mb 0.12 in3.0 mm 0.12 in3.0 mm 0.20 in5.1 mm
04:45 AM 36.7°F2.6°C 34.9°F1.6°C 93% 4.0 mph SE6.4 kmh SE 13.0 mph20.9 kmh 30.20 in1022.7 mb 0.12 in3.0 mm 0.00 in0.0 mm 0.20 in5.1 mm
04:50 AM 36.7°F2.6°C 34.9°F1.6°C 93% 10.0 mph ESE16.1 kmh ESE 14.0 mph22.5 kmh 30.20 in1022.7 mb 0.11 in2.8 mm 0.00 in0.0 mm 0.20 in5.1 mm
04:55 AM 36.7°F2.6°C 34.9°F1.6°C 93% 6.0 mph SE9.7 kmh SE 14.0 mph22.5 kmh 30.20 in1022.7 mb 0.12 in3.0 mm 0.12 in3.0 mm 0.21 in5.3 mm
05:00 AM 36.7°F2.6°C 34.9°F1.6°C 93% 4.0 mph SE6.4 kmh SE 14.0 mph22.5 kmh 30.20 in1022.7 mb 0.12 in3.0 mm 0.00 in0.0 mm 0.21 in5.3 mm
05:05 AM 36.8°F2.7°C 35.0°F1.7°C 93% 6.0 mph SE9.7 kmh SE 9.0 mph14.5 kmh 30.20 in1022.7 mb 0.11 in2.8 mm 0.00 in0.0 mm 0.21 in5.3 mm
05:10 AM 36.8°F2.7°C 35.0°F1.7°C 93% 6.0 mph SSE9.7 kmh SSE 11.0 mph17.7 kmh 30.20 in1022.7 mb 0.12 in3.0 mm 0.12 in3.0 mm 0.22 in5.6 mm
05:15 AM 36.8°F2.7°C 35.0°F1.7°C 93% 6.0 mph SE9.7 kmh SE 12.0 mph19.3 kmh 30.21 in1023.0 mb 0.13 in3.3 mm 0.12 in3.0 mm 0.23 in5.8 mm
05:20 AM 36.8°F2.7°C 35.0°F1.7°C 93% 7.0 mph SE11.3 kmh SE 11.0 mph17.7 kmh 30.21 in1023.0 mb 0.10 in2.5 mm 0.00 in0.0 mm 0.23 in5.8 mm
05:25 AM 36.9°F2.7°C 35.1°F1.7°C 93% 5.0 mph ESE8.0 kmh ESE 11.0 mph17.7 kmh 30.21 in1023.0 mb 0.11 in2.8 mm 0.12 in3.0 mm 0.24 in6.1 mm
05:30 AM 36.9°F2.7°C 35.1°F1.7°C 93% 4.0 mph SE6.4 kmh SE 11.0 mph17.7 kmh 30.21 in1023.0 mb 0.11 in2.8 mm 0.00 in0.0 mm 0.24 in6.1 mm
05:35 AM 37.0°F2.8°C 35.2°F1.8°C 93% 5.0 mph ESE8.0 kmh ESE 12.0 mph19.3 kmh 30.21 in1023.0 mb 0.09 in2.3 mm 0.00 in0.0 mm 0.24 in6.1 mm
05:40 AM 37.0°F2.8°C 35.2°F1.8°C 93% 12.0 mph ESE19.3 kmh ESE 12.0 mph19.3 kmh 30.21 in1023.0 mb 0.10 in2.5 mm 0.12 in3.0 mm 0.25 in6.4 mm
05:45 AM 37.0°F2.8°C 35.2°F1.8°C 93% 7.0 mph SE11.3 kmh SE 13.0 mph20.9 kmh 30.21 in1023.0 mb 0.10 in2.5 mm 0.00 in0.0 mm 0.25 in6.4 mm
05:50 AM 37.0°F2.8°C 35.2°F1.8°C 93% 5.0 mph ESE8.0 kmh ESE 10.0 mph16.1 kmh 30.21 in1023.0 mb 0.09 in2.3 mm 0.00 in0.0 mm 0.25 in6.4 mm
05:55 AM 37.0°F2.8°C 35.2°F1.8°C 93% 1.0 mph SE1.6 kmh SE 15.0 mph24.1 kmh 30.21 in1023.0 mb 0.09 in2.3 mm 0.00 in0.0 mm 0.25 in6.4 mm
06:00 AM 37.0°F2.8°C 35.2°F1.8°C 93% 6.0 mph SE9.7 kmh SE 15.0 mph24.1 kmh 30.21 in1023.0 mb 0.10 in2.5 mm 0.01 in0.3 mm 0.26 in6.6 mm
06:05 AM 37.0°F2.8°C 35.2°F1.8°C 93% 3.0 mph ESE4.8 kmh ESE 11.0 mph17.7 kmh 30.21 in1023.0 mb 0.08 in2.0 mm 0.00 in0.0 mm 0.26 in6.6 mm
06:10 AM 37.1°F2.8°C 35.3°F1.8°C 93% 3.0 mph ESE4.8 kmh ESE 12.0 mph19.3 kmh 30.21 in1023.0 mb 0.09 in2.3 mm 0.12 in3.0 mm 0.27 in6.9 mm
06:15 AM 37.1°F2.8°C 35.3°F1.8°C 93% 6.0 mph SE9.7 kmh SE 12.0 mph19.3 kmh 30.21 in1023.0 mb 0.09 in2.3 mm 0.00 in0.0 mm 0.27 in6.9 mm
06:20 AM 37.1°F2.8°C 35.3°F1.8°C 93% 9.0 mph E14.5 kmh E 13.0 mph20.9 kmh 30.21 in1023.0 mb 0.07 in1.8 mm 0.00 in0.0 mm 0.27 in6.9 mm
06:25 AM 37.1°F2.8°C 35.3°F1.8°C 93% 4.0 mph SE6.4 kmh SE 15.0 mph24.1 kmh 30.21 in1023.0 mb 0.07 in1.8 mm 0.00 in0.0 mm 0.27 in6.9 mm
06:30 AM 37.1°F2.8°C 35.3°F1.8°C 93% 3.0 mph SE4.8 kmh SE 15.0 mph24.1 kmh 30.21 in1023.0 mb 0.07 in1.8 mm 0.00 in0.0 mm 0.27 in6.9 mm
06:35 AM 37.1°F2.8°C 35.3°F1.8°C 93% 5.0 mph SE8.0 kmh SE 12.0 mph19.3 kmh 30.20 in1022.7 mb 0.06 in1.5 mm 0.00 in0.0 mm 0.27 in6.9 mm
06:40 AM 37.1°F2.8°C 35.3°F1.8°C 93% 10.0 mph ESE16.1 kmh ESE 15.0 mph24.1 kmh 30.21 in1023.0 mb 0.06 in1.5 mm 0.00 in0.0 mm 0.27 in6.9 mm
06:45 AM 37.1°F2.8°C 35.3°F1.8°C 93% 4.0 mph SE6.4 kmh SE 15.0 mph24.1 kmh 30.21 in1023.0 mb 0.06 in1.5 mm 0.00 in0.0 mm 0.27 in6.9 mm
06:50 AM 37.1°F2.8°C 35.3°F1.8°C 93% 7.0 mph ESE11.3 kmh ESE 10.0 mph16.1 kmh 30.21 in1023.0 mb 0.05 in1.3 mm 0.00 in0.0 mm 0.27 in6.9 mm
06:55 AM 37.1°F2.8°C 35.3°F1.8°C 93% 5.0 mph ESE8.0 kmh ESE 12.0 mph19.3 kmh 30.21 in1023.0 mb 0.05 in1.3 mm 0.00 in0.0 mm 0.27 in6.9 mm
07:00 AM 37.2°F2.9°C 35.4°F1.9°C 93% 6.0 mph SE9.7 kmh SE 13.0 mph20.9 kmh 30.20 in1022.7 mb 0.05 in1.3 mm 0.00 in0.0 mm 0.27 in6.9 mm
07:05 AM 37.2°F2.9°C 35.4°F1.9°C 93% 7.0 mph ESE11.3 kmh ESE 14.0 mph22.5 kmh 30.20 in1022.7 mb 0.04 in1.0 mm 0.00 in0.0 mm 0.27 in6.9 mm
07:10 AM 37.2°F2.9°C 35.4°F1.9°C 93% 8.0 mph SE12.9 kmh SE 16.0 mph25.7 kmh 30.19 in1022.4 mb 0.04 in1.0 mm 0.00 in0.0 mm 0.27 in6.9 mm
07:15 AM 37.2°F2.9°C 35.4°F1.9°C 93% 6.0 mph SE9.7 kmh SE 16.0 mph25.7 kmh 30.18 in1022.0 mb 0.04 in1.0 mm 0.00 in0.0 mm 0.27 in6.9 mm
07:20 AM 37.3°F2.9°C 35.5°F1.9°C 93% 9.0 mph SE14.5 kmh SE 14.0 mph22.5 kmh 30.17 in1021.7 mb 0.03 in0.8 mm 0.00 in0.0 mm 0.27 in6.9 mm
07:25 AM 37.3°F2.9°C 35.5°F1.9°C 93% 7.0 mph SE11.3 kmh SE 20.0 mph32.2 kmh 30.16 in1021.3 mb 0.03 in0.8 mm 0.00 in0.0 mm 0.27 in6.9 mm
07:30 AM 37.3°F2.9°C 35.5°F1.9°C 93% 8.0 mph SE12.9 kmh SE 20.0 mph32.2 kmh 30.15 in1021.0 mb 0.03 in0.8 mm 0.00 in0.0 mm 0.27 in6.9 mm
07:35 AM 37.4°F3.0°C 35.6°F2.0°C 93% 11.0 mph SE17.7 kmh SE 15.0 mph24.1 kmh 30.18 in1022.0 mb 0.02 in0.5 mm 0.00 in0.0 mm 0.27 in6.9 mm
07:40 AM 37.4°F3.0°C 35.6°F2.0°C 93% 7.0 mph SSE11.3 kmh SSE 15.0 mph24.1 kmh 30.20 in1022.7 mb 0.02 in0.5 mm 0.00 in0.0 mm 0.27 in6.9 mm
07:45 AM 37.5°F3.1°C 35.7°F2.1°C 93% 7.0 mph ESE11.3 kmh ESE 15.0 mph24.1 kmh 30.21 in1023.0 mb 0.02 in0.5 mm 0.00 in0.0 mm 0.27 in6.9 mm
07:50 AM 37.7°F3.2°C 35.9°F2.2°C 93% 6.0 mph SE9.7 kmh SE 13.0 mph20.9 kmh 30.21 in1023.0 mb 0.02 in0.5 mm 0.00 in0.0 mm 0.27 in6.9 mm
07:55 AM 37.8°F3.2°C 36.0°F2.2°C 93% 13.0 mph ESE20.9 kmh ESE 13.0 mph20.9 kmh 30.20 in1022.7 mb 0.02 in0.5 mm 0.00 in0.0 mm 0.27 in6.9 mm
08:00 AM 37.8°F3.2°C 36.0°F2.2°C 93% 3.0 mph SSE4.8 kmh SSE 13.0 mph20.9 kmh 30.21 in1023.0 mb 0.02 in0.5 mm 0.00 in0.0 mm 0.27 in6.9 mm
08:05 AM 37.9°F3.3°C 35.8°F2.1°C 92% 7.0 mph SE11.3 kmh SE 14.0 mph22.5 kmh 30.21 in1023.0 mb 0.01 in0.3 mm 0.00 in0.0 mm 0.27 in6.9 mm
08:10 AM 37.9°F3.3°C 35.8°F2.1°C 92% 10.0 mph SE16.1 kmh SE 14.0 mph22.5 kmh 30.21 in1023.0 mb 0.01 in0.3 mm 0.00 in0.0 mm 0.27 in6.9 mm
08:15 AM 37.8°F3.2°C 35.7°F2.1°C 92% 5.0 mph S8.0 kmh S 14.0 mph22.5 kmh 30.21 in1023.0 mb 0.01 in0.3 mm 0.00 in0.0 mm 0.27 in6.9 mm
08:20 AM 37.8°F3.2°C 35.7°F2.1°C 92% 3.0 mph SSE4.8 kmh SSE 12.0 mph19.3 kmh 30.20 in1022.7 mb 0.00 in0.0 mm 0.00 in0.0 mm 0.27 in6.9 mm
08:30 AM 37.7°F3.2°C 35.6°F2.0°C 92% 3.0 mph SE4.8 kmh SE 12.0 mph19.3 kmh 30.20 in1022.7 mb 0.00 in0.0 mm 0.00 in0.0 mm 0.27 in6.9 mm
08:35 AM 37.7°F3.2°C 35.6°F2.0°C 92% 6.0 mph S9.7 kmh S 12.0 mph19.3 kmh 30.21 in1023.0 mb 0.00 in0.0 mm 0.00 in0.0 mm 0.27 in6.9 mm
08:40 AM 37.7°F3.2°C 35.6°F2.0°C 92% 6.0 mph SE9.7 kmh SE 12.0 mph19.3 kmh 30.21 in1023.0 mb 0.00 in0.0 mm 0.00 in0.0 mm 0.27 in6.9 mm
08:45 AM 37.7°F3.2°C 35.6°F2.0°C 92% 1.0 mph SE1.6 kmh SE 12.0 mph19.3 kmh 30.21 in1023.0 mb 0.00 in0.0 mm 0.00 in0.0 mm 0.27 in6.9 mm
08:50 AM 37.7°F3.2°C 35.6°F2.0°C 92% 3.0 mph ESE4.8 kmh ESE 10.0 mph16.1 kmh 30.21 in1023.0 mb 0.00 in0.0 mm 0.00 in0.0 mm 0.27 in6.9 mm
08:55 AM 37.8°F3.2°C 35.7°F2.1°C 92% 6.0 mph SE9.7 kmh SE 10.0 mph16.1 kmh 30.21 in1023.0 mb 0.00 in0.0 mm 0.00 in0.0 mm 0.27 in6.9 mm
09:00 AM 37.8°F3.2°C 35.7°F2.1°C 92% 5.0 mph S8.0 kmh S 12.0 mph19.3 kmh 30.21 in1023.0 mb 0.00 in0.0 mm 0.00 in0.0 mm 0.27 in6.9 mm
09:05 AM 37.9°F3.3°C 35.5°F1.9°C 91% 5.0 mph SE8.0 kmh SE 10.0 mph16.1 kmh 30.22 in1023.4 mb 0.00 in0.0 mm 0.00 in0.0 mm 0.27 in6.9 mm
09:10 AM 37.9°F3.3°C 35.5°F1.9°C 91% 5.0 mph S8.0 kmh S 10.0 mph16.1 kmh 30.22 in1023.4 mb 0.00 in0.0 mm 0.00 in0.0 mm 0.27 in6.9 mm
09:15 AM 37.9°F3.3°C 35.5°F1.9°C 91% 8.0 mph SSE12.9 kmh SSE 10.0 mph16.1 kmh 30.21 in1023.0 mb 0.00 in0.0 mm 0.00 in0.0 mm 0.27 in6.9 mm
09:20 AM 37.9°F3.3°C 35.5°F1.9°C 91% 6.0 mph S9.7 kmh S 12.0 mph19.3 kmh 30.21 in1023.0 mb 0.00 in0.0 mm 0.00 in0.0 mm 0.27 in6.9 mm
09:25 AM 38.0°F3.3°C 35.6°F2.0°C 91% 5.0 mph SE8.0 kmh SE 12.0 mph19.3 kmh 30.20 in1022.7 mb 0.00 in0.0 mm 0.00 in0.0 mm 0.27 in6.9 mm
09:30 AM 37.9°F3.3°C 35.5°F1.9°C 91% 6.0 mph S9.7 kmh S 12.0 mph19.3 kmh 30.21 in1023.0 mb 0.00 in0.0 mm 0.00 in0.0 mm 0.27 in6.9 mm
09:35 AM 38.0°F3.3°C 35.6°F2.0°C 91% 10.0 mph SE16.1 kmh SE 12.0 mph19.3 kmh 30.20 in1022.7 mb 0.00 in0.0 mm 0.00 in0.0 mm 0.27 in6.9 mm
09:40 AM 37.9°F3.3°C 35.5°F1.9°C 91% 6.0 mph SSE9.7 kmh SSE 12.0 mph19.3 kmh 30.20 in1022.7 mb 0.00 in0.0 mm 0.00 in0.0 mm 0.27 in6.9 mm
09:45 AM 37.9°F3.3°C 35.5°F1.9°C 91% 5.0 mph SSE8.0 kmh SSE 12.0 mph19.3 kmh 30.20 in1022.7 mb 0.00 in0.0 mm 0.00 in0.0 mm 0.27 in6.9 mm
09:50 AM 37.9°F3.3°C 35.5°F1.9°C 91% 5.0 mph SSE8.0 kmh SSE 11.0 mph17.7 kmh 30.20 in1022.7 mb 0.00 in0.0 mm 0.00 in0.0 mm 0.27 in6.9 mm
09:55 AM 37.9°F3.3°C 35.5°F1.9°C 91% 7.0 mph S11.3 kmh S 11.0 mph17.7 kmh 30.21 in1023.0 mb 0.00 in0.0 mm 0.00 in0.0 mm 0.27 in6.9 mm
10:00 AM 37.9°F3.3°C 35.5°F1.9°C 91% 7.0 mph S11.3 kmh S 11.0 mph17.7 kmh 30.21 in1023.0 mb 0.00 in0.0 mm 0.00 in0.0 mm 0.27 in6.9 mm
10:05 AM 37.9°F3.3°C 35.5°F1.9°C 91% 3.0 mph SE4.8 kmh SE 13.0 mph20.9 kmh 30.20 in1022.7 mb 0.00 in0.0 mm 0.00 in0.0 mm 0.27 in6.9 mm
10:10 AM 37.9°F3.3°C 35.5°F1.9°C 91% 9.0 mph SSE14.5 kmh SSE 13.0 mph20.9 kmh 30.20 in1022.7 mb 0.00 in0.0 mm 0.00 in0.0 mm 0.27 in6.9 mm
10:15 AM 37.9°F3.3°C 35.5°F1.9°C 91% 5.0 mph SE8.0 kmh SE 13.0 mph20.9 kmh 30.21 in1023.0 mb 0.00 in0.0 mm 0.00 in0.0 mm 0.27 in6.9 mm
10:20 AM 38.3°F3.5°C 35.9°F2.2°C 91% 6.0 mph S9.7 kmh S 12.0 mph19.3 kmh 30.21 in1023.0 mb 0.00 in0.0 mm 0.00 in0.0 mm 0.27 in6.9 mm
10:25 AM 38.4°F3.6°C 36.0°F2.2°C 91% 5.0 mph SSW8.0 kmh SSW 12.0 mph19.3 kmh 30.20 in1022.7 mb 0.00 in0.0 mm 0.00 in0.0 mm 0.27 in6.9 mm
10:30 AM 38.5°F3.6°C 36.1°F2.3°C 91% 13.0 mph SSE20.9 kmh SSE 13.0 mph20.9 kmh 30.20 in1022.7 mb 0.00 in0.0 mm 0.00 in0.0 mm 0.27 in6.9 mm
10:35 AM 38.7°F3.7°C 36.3°F2.4°C 91% 7.0 mph SE11.3 kmh SE 12.0 mph19.3 kmh 30.20 in1022.7 mb 0.00 in0.0 mm 0.00 in0.0 mm 0.27 in6.9 mm
10:40 AM 38.8°F3.8°C 36.4°F2.4°C 91% 7.0 mph SE11.3 kmh SE 13.0 mph20.9 kmh 30.20 in1022.7 mb 0.00 in0.0 mm 0.00 in0.0 mm 0.27 in6.9 mm
10:45 AM 38.9°F3.8°C 36.5°F2.5°C 91% 7.0 mph SSE11.3 kmh SSE 13.0 mph20.9 kmh 30.20 in1022.7 mb 0.00 in0.0 mm 0.00 in0.0 mm 0.27 in6.9 mm
10:50 AM 39.0°F3.9°C 36.6°F2.6°C 91% 5.0 mph SE8.0 kmh SE 11.0 mph17.7 kmh 30.20 in1022.7 mb 0.00 in0.0 mm 0.00 in0.0 mm 0.27 in6.9 mm
10:55 AM 39.1°F3.9°C 36.7°F2.6°C 91% 9.0 mph SE14.5 kmh SE 14.0 mph22.5 kmh 30.20 in1022.7 mb 0.00 in0.0 mm 0.00 in0.0 mm 0.27 in6.9 mm
11:00 AM 39.2°F4.0°C 36.8°F2.7°C 91% 5.0 mph SSE8.0 kmh SSE 14.0 mph22.5 kmh 30.20 in1022.7 mb 0.00 in0.0 mm 0.00 in0.0 mm 0.27 in6.9 mm
11:05 AM 39.3°F4.1°C 36.9°F2.7°C 91% 5.0 mph SSE8.0 kmh SSE 12.0 mph19.3 kmh 30.20 in1022.7 mb 0.00 in0.0 mm 0.00 in0.0 mm 0.27 in6.9 mm
11:10 AM 39.6°F4.2°C 36.9°F2.7°C 90% 4.0 mph SE6.4 kmh SE 12.0 mph19.3 kmh 30.20 in1022.7 mb 0.00 in0.0 mm 0.00 in0.0 mm 0.27 in6.9 mm
11:15 AM 39.9°F4.4°C 37.2°F2.9°C 90% 10.0 mph SE16.1 kmh SE 14.0 mph22.5 kmh 30.20 in1022.7 mb 0.00 in0.0 mm 0.00 in0.0 mm 0.27 in6.9 mm
11:20 AM 40.0°F4.4°C 37.3°F2.9°C 90% 4.0 mph SSE6.4 kmh SSE 10.0 mph16.1 kmh 30.20 in1022.7 mb 0.00 in0.0 mm 0.00 in0.0 mm 0.27 in6.9 mm
11:25 AM 40.0°F4.4°C 37.3°F2.9°C 90% 5.0 mph ESE8.0 kmh ESE 11.0 mph17.7 kmh 30.20 in1022.7 mb 0.00 in0.0 mm 0.00 in0.0 mm 0.27 in6.9 mm
11:30 AM 40.0°F4.4°C 37.3°F2.9°C 90% 6.0 mph SSE9.7 kmh SSE 11.0 mph17.7 kmh 30.21 in1023.0 mb 0.00 in0.0 mm 0.00 in0.0 mm 0.27 in6.9 mm
11:35 AM 40.0°F4.4°C 37.3°F2.9°C 90% 6.0 mph SE9.7 kmh SE 10.0 mph16.1 kmh 30.21 in1023.0 mb 0.00 in0.0 mm 0.00 in0.0 mm 0.27 in6.9 mm
11:40 AM 40.1°F4.5°C 37.4°F3.0°C 90% 4.0 mph SSE6.4 kmh SSE 10.0 mph16.1 kmh 30.21 in1023.0 mb 0.00 in0.0 mm 0.00 in0.0 mm 0.27 in6.9 mm
11:45 AM 40.2°F4.6°C 37.5°F3.1°C 90% 5.0 mph SE8.0 kmh SE 10.0 mph16.1 kmh 30.21 in1023.0 mb 0.00 in0.0 mm 0.00 in0.0 mm 0.27 in6.9 mm
11:50 AM 40.3°F4.6°C 37.6°F3.1°C 90% 9.0 mph SE14.5 kmh SE 12.0 mph19.3 kmh 30.21 in1023.0 mb 0.00 in0.0 mm 0.00 in0.0 mm 0.27 in6.9 mm
11:55 AM 40.4°F4.7°C 37.4°F3.0°C 89% 12.0 mph SE19.3 kmh SE 13.0 mph20.9 kmh 30.21 in1023.0 mb 0.00 in0.0 mm 0.00 in0.0 mm 0.27 in6.9 mm
12:00 PM 40.6°F4.8°C 37.6°F3.1°C 89% 3.0 mph SSE4.8 kmh SSE 13.0 mph20.9 kmh 30.21 in1023.0 mb 0.00 in0.0 mm 0.00 in0.0 mm 0.27 in6.9 mm
12:05 PM 40.7°F4.8°C 37.7°F3.2°C 89% 9.0 mph S14.5 kmh S 14.0 mph22.5 kmh 30.21 in1023.0 mb 0.00 in0.0 mm 0.00 in0.0 mm 0.27 in6.9 mm
12:10 PM 40.8°F4.9°C 37.5°F3.1°C 88% 10.0 mph SE16.1 kmh SE 17.0 mph27.4 kmh 30.20 in1022.7 mb 0.00 in0.0 mm 0.00 in0.0 mm 0.27 in6.9 mm
12:15 PM 40.9°F4.9°C 37.6°F3.1°C 88% 7.0 mph SSE11.3 kmh SSE 17.0 mph27.4 kmh 30.20 in1022.7 mb 0.00 in0.0 mm 0.00 in0.0 mm 0.27 in6.9 mm
12:20 PM 41.0°F5.0°C 37.4°F3.0°C 87% 13.0 mph SE20.9 kmh SE 15.0 mph24.1 kmh 30.20 in1022.7 mb 0.00 in0.0 mm 0.00 in0.0 mm 0.27 in6.9 mm
12:25 PM 41.2°F5.1°C 37.6°F3.1°C 87% 11.0 mph SE17.7 kmh SE 16.0 mph25.7 kmh 30.20 in1022.7 mb 0.00 in0.0 mm 0.00 in0.0 mm 0.27 in6.9 mm
12:30 PM 41.5°F5.3°C 37.9°F3.3°C 87% 3.0 mph SE4.8 kmh SE 16.0 mph25.7 kmh 30.20 in1022.7 mb 0.00 in0.0 mm 0.00 in0.0 mm 0.27 in6.9 mm
12:35 PM 41.8°F5.4°C 38.2°F3.4°C 87% 5.0 mph SSE8.0 kmh SSE 12.0 mph19.3 kmh 30.19 in1022.4 mb 0.00 in0.0 mm 0.00 in0.0 mm 0.27 in6.9 mm
12:40 PM 42.0°F5.6°C 38.1°F3.4°C 86% 4.0 mph SSE6.4 kmh SSE 15.0 mph24.1 kmh 30.20 in1022.7 mb 0.00 in0.0 mm 0.00 in0.0 mm 0.27 in6.9 mm
12:45 PM 42.1°F5.6°C 38.2°F3.4°C 86% 8.0 mph SE12.9 kmh SE 16.0 mph25.7 kmh 30.19 in1022.4 mb 0.00 in0.0 mm 0.00 in0.0 mm 0.27 in6.9 mm
12:50 PM 42.4°F5.8°C 38.5°F3.6°C 86% 8.0 mph SE12.9 kmh SE 13.0 mph20.9 kmh 30.19 in1022.4 mb 0.00 in0.0 mm 0.00 in0.0 mm 0.27 in6.9 mm
12:55 PM 42.6°F5.9°C 38.4°F3.6°C 85% 10.0 mph SSE16.1 kmh SSE 17.0 mph27.4 kmh 30.19 in1022.4 mb 0.00 in0.0 mm 0.00 in0.0 mm 0.27 in6.9 mm
01:00 PM 42.8°F6.0°C 38.6°F3.7°C 85% 8.0 mph SE12.9 kmh SE 17.0 mph27.4 kmh 30.18 in1022.0 mb 0.00 in0.0 mm 0.00 in0.0 mm 0.27 in6.9 mm
01:05 PM 43.1°F6.2°C 38.9°F3.8°C 85% 6.0 mph SE9.7 kmh SE 14.0 mph22.5 kmh 30.18 in1022.0 mb 0.00 in0.0 mm 0.00 in0.0 mm 0.27 in6.9 mm
01:10 PM 42.9°F6.1°C 38.4°F3.6°C 84% 2.0 mph SE3.2 kmh SE 14.0 mph22.5 kmh 30.19 in1022.4 mb 0.00 in0.0 mm 0.00 in0.0 mm 0.27 in6.9 mm
01:15 PM 43.0°F6.1°C 38.5°F3.6°C 84% 11.0 mph SE17.7 kmh SE 14.0 mph22.5 kmh 30.18 in1022.0 mb 0.00 in0.0 mm 0.00 in0.0 mm 0.27 in6.9 mm
01:20 PM 42.9°F6.1°C 38.1°F3.4°C 83% 12.0 mph SE19.3 kmh SE 16.0 mph25.7 kmh 30.18 in1022.0 mb 0.00 in0.0 mm 0.00 in0.0 mm 0.27 in6.9 mm
01:25 PM 42.8°F6.0°C 38.3°F3.5°C 84% 4.0 mph SE6.4 kmh SE 16.0 mph25.7 kmh 30.18 in1022.0 mb 0.00 in0.0 mm 0.00 in0.0 mm 0.27 in6.9 mm
01:30 PM 42.8°F6.0°C 38.3°F3.5°C 84% 12.0 mph SSE19.3 kmh SSE 16.0 mph25.7 kmh 30.18 in1022.0 mb 0.00 in0.0 mm 0.00 in0.0 mm 0.27 in6.9 mm
01:35 PM 43.0°F6.1°C 38.5°F3.6°C 84% 7.0 mph SE11.3 kmh SE 13.0 mph20.9 kmh 30.17 in1021.7 mb 0.00 in0.0 mm 0.00 in0.0 mm 0.27 in6.9 mm
01:40 PM 43.2°F6.2°C 38.7°F3.7°C 84% 9.0 mph SSE14.5 kmh SSE 14.0 mph22.5 kmh 30.17 in1021.7 mb 0.00 in0.0 mm 0.00 in0.0 mm 0.27 in6.9 mm
01:45 PM 43.6°F6.4°C 39.1°F3.9°C 84% 10.0 mph ESE16.1 kmh ESE 14.0 mph22.5 kmh 30.17 in1021.7 mb 0.00 in0.0 mm 0.00 in0.0 mm 0.27 in6.9 mm
01:50 PM 43.6°F6.4°C 38.8°F3.8°C 83% 3.0 mph SE4.8 kmh SE 14.0 mph22.5 kmh 30.16 in1021.3 mb 0.00 in0.0 mm 0.00 in0.0 mm 0.27 in6.9 mm
01:55 PM 43.6°F6.4°C 39.1°F3.9°C 84% 7.0 mph SE11.3 kmh SE 14.0 mph22.5 kmh 30.16 in1021.3 mb 0.00 in0.0 mm 0.00 in0.0 mm 0.27 in6.9 mm
02:00 PM 43.5°F6.4°C 39.0°F3.9°C 84% 6.0 mph SE9.7 kmh SE 14.0 mph22.5 kmh 30.17 in1021.7 mb 0.00 in0.0 mm 0.00 in0.0 mm 0.27 in6.9 mm
02:05 PM 43.5°F6.4°C 39.0°F3.9°C 84% 7.0 mph SE11.3 kmh SE 13.0 mph20.9 kmh 30.16 in1021.3 mb 0.00 in0.0 mm 0.00 in0.0 mm 0.27 in6.9 mm
02:10 PM 43.5°F6.4°C 39.0°F3.9°C 84% 6.0 mph SSE9.7 kmh SSE 14.0 mph22.5 kmh 30.15 in1021.0 mb 0.00 in0.0 mm 0.00 in0.0 mm 0.27 in6.9 mm
02:15 PM 43.6°F6.4°C 39.1°F3.9°C 84% 8.0 mph SE12.9 kmh SE 16.0 mph25.7 kmh 30.15 in1021.0 mb 0.00 in0.0 mm 0.00 in0.0 mm 0.27 in6.9 mm
02:20 PM 43.6°F6.4°C 39.1°F3.9°C 84% 10.0 mph SSE16.1 kmh SSE 17.0 mph27.4 kmh 30.14 in1020.7 mb 0.00 in0.0 mm 0.00 in0.0 mm 0.27 in6.9 mm
02:25 PM 43.8°F6.6°C 39.3°F4.1°C 84% 11.0 mph SE17.7 kmh SE 17.0 mph27.4 kmh 30.14 in1020.7 mb 0.00 in0.0 mm 0.00 in0.0 mm 0.27 in6.9 mm
02:30 PM 44.1°F6.7°C 39.6°F4.2°C 84% 12.0 mph E19.3 kmh E 17.0 mph27.4 kmh 30.14 in1020.7 mb 0.00 in0.0 mm 0.00 in0.0 mm 0.27 in6.9 mm
02:35 PM 44.0°F6.7°C 39.5°F4.2°C 84% 13.0 mph SE20.9 kmh SE 13.0 mph20.9 kmh 30.14 in1020.7 mb 0.00 in0.0 mm 0.00 in0.0 mm 0.27 in6.9 mm
02:40 PM 44.0°F6.7°C 39.8°F4.3°C 85% 4.0 mph SE6.4 kmh SE 13.0 mph20.9 kmh 30.14 in1020.7 mb 0.00 in0.0 mm 0.00 in0.0 mm 0.27 in6.9 mm
02:45 PM 44.1°F6.7°C 39.9°F4.4°C 85% 4.0 mph SSE6.4 kmh SSE 13.0 mph20.9 kmh 30.14 in1020.7 mb 0.00 in0.0 mm 0.00 in0.0 mm 0.27 in6.9 mm
02:50 PM 44.2°F6.8°C 40.0°F4.4°C 85% 6.0 mph SSE9.7 kmh SSE 14.0 mph22.5 kmh 30.14 in1020.7 mb 0.00 in0.0 mm 0.00 in0.0 mm 0.27 in6.9 mm
02:55 PM 44.2°F6.8°C 39.7°F4.3°C 84% 5.0 mph SE8.0 kmh SE 17.0 mph27.4 kmh 30.14 in1020.7 mb 0.00 in0.0 mm 0.00 in0.0 mm 0.27 in6.9 mm
03:00 PM 44.1°F6.7°C 39.9°F4.4°C 85% 9.0 mph SE14.5 kmh SE 17.0 mph27.4 kmh 30.14 in1020.7 mb 0.00 in0.0 mm 0.00 in0.0 mm 0.27 in6.9 mm
03:05 PM 44.0°F6.7°C 39.8°F4.3°C 85% 2.0 mph SE3.2 kmh SE 11.0 mph17.7 kmh 30.14 in1020.7 mb 0.00 in0.0 mm 0.00 in0.0 mm 0.27 in6.9 mm
03:10 PM 43.9°F6.6°C 39.7°F4.3°C 85% 6.0 mph SE9.7 kmh SE 11.0 mph17.7 kmh 30.14 in1020.7 mb 0.00 in0.0 mm 0.00 in0.0 mm 0.27 in6.9 mm
03:15 PM 43.8°F6.6°C 39.9°F4.4°C 86% 5.0 mph SSE8.0 kmh SSE 12.0 mph19.3 kmh 30.14 in1020.7 mb 0.00 in0.0 mm 0.00 in0.0 mm 0.27 in6.9 mm
03:20 PM 43.6°F6.4°C 39.7°F4.3°C 86% 1.0 mph SSE1.6 kmh SSE 7.0 mph11.3 kmh 30.14 in1020.7 mb 0.00 in0.0 mm 0.00 in0.0 mm 0.27 in6.9 mm
03:25 PM 43.5°F6.4°C 39.9°F4.4°C 87% 1.0 mph SSE1.6 kmh SSE 7.0 mph11.3 kmh 30.15 in1021.0 mb 0.00 in0.0 mm 0.00 in0.0 mm 0.27 in6.9 mm
03:30 PM 43.3°F6.3°C 40.0°F4.4°C 88% 7.0 mph S11.3 kmh S 7.0 mph11.3 kmh 30.15 in1021.0 mb 0.00 in0.0 mm 0.00 in0.0 mm 0.27 in6.9 mm
03:35 PM 43.2°F6.2°C 39.6°F4.2°C 87% 6.0 mph SE9.7 kmh SE 11.0 mph17.7 kmh 30.15 in1021.0 mb 0.00 in0.0 mm 0.00 in0.0 mm 0.27 in6.9 mm
03:40 PM 43.1°F6.2°C 39.8°F4.3°C 88% 2.0 mph SE3.2 kmh SE 11.0 mph17.7 kmh 30.15 in1021.0 mb 0.00 in0.0 mm 0.00 in0.0 mm 0.27 in6.9 mm
03:45 PM 43.0°F6.1°C 39.7°F4.3°C 88% 4.0 mph SE6.4 kmh SE 11.0 mph17.7 kmh 30.15 in1021.0 mb 0.01 in0.3 mm 0.12 in3.0 mm 0.28 in7.1 mm
03:50 PM 42.8°F6.0°C 39.8°F4.3°C 89% 3.0 mph SE4.8 kmh SE 10.0 mph16.1 kmh 30.15 in1021.0 mb 0.02 in0.5 mm 0.12 in3.0 mm 0.29 in7.4 mm
03:55 PM 42.7°F5.9°C 39.7°F4.3°C 89% 4.0 mph SE6.4 kmh SE 10.0 mph16.1 kmh 30.15 in1021.0 mb 0.03 in0.8 mm 0.12 in3.0 mm 0.30 in7.6 mm
04:00 PM 42.6°F5.9°C 39.6°F4.2°C 89% Calm Calm 10.0 mph16.1 kmh 30.15 in1021.0 mb 0.04 in1.0 mm 0.01 in0.3 mm 0.31 in7.9 mm
04:05 PM 42.6°F5.9°C 39.9°F4.4°C 90% 2.0 mph SE3.2 kmh SE 9.0 mph14.5 kmh 30.15 in1021.0 mb 0.05 in1.3 mm 0.12 in3.0 mm 0.32 in8.1 mm
04:10 PM 42.5°F5.8°C 39.8°F4.3°C 90% 4.0 mph SE6.4 kmh SE 9.0 mph14.5 kmh 30.15 in1021.0 mb 0.05 in1.3 mm 0.00 in0.0 mm 0.32 in8.1 mm
04:15 PM 42.5°F5.8°C 40.1°F4.5°C 91% 7.0 mph SSE11.3 kmh SSE 9.0 mph14.5 kmh 30.14 in1020.7 mb 0.06 in1.5 mm 0.12 in3.0 mm 0.33 in8.4 mm
04:20 PM 42.5°F5.8°C 40.1°F4.5°C 91% 6.0 mph SE9.7 kmh SE 8.0 mph12.9 kmh 30.14 in1020.7 mb 0.06 in1.5 mm 0.00 in0.0 mm 0.33 in8.4 mm
04:25 PM 42.4°F5.8°C 40.0°F4.4°C 91% 3.0 mph SSE4.8 kmh SSE 8.0 mph12.9 kmh 30.14 in1020.7 mb 0.08 in2.0 mm 0.24 in6.1 mm 0.35 in8.9 mm
04:30 PM 42.4°F5.8°C 40.0°F4.4°C 91% 4.0 mph SE6.4 kmh SE 10.0 mph16.1 kmh 30.14 in1020.7 mb 0.08 in2.0 mm 0.00 in0.0 mm 0.35 in8.9 mm
04:35 PM 42.4°F5.8°C 40.3°F4.6°C 92% 2.0 mph SSE3.2 kmh SSE 10.0 mph16.1 kmh 30.14 in1020.7 mb 0.09 in2.3 mm 0.12 in3.0 mm 0.36 in9.1 mm
04:40 PM 42.4°F5.8°C 40.3°F4.6°C 92% 6.0 mph S9.7 kmh S 10.0 mph16.1 kmh 30.14 in1020.7 mb 0.10 in2.5 mm 0.12 in3.0 mm 0.37 in9.4 mm
04:45 PM 42.4°F5.8°C 40.3°F4.6°C 92% 3.0 mph SE4.8 kmh SE 10.0 mph16.1 kmh 30.14 in1020.7 mb 0.11 in2.8 mm 0.12 in3.0 mm 0.38 in9.7 mm
04:50 PM 42.4°F5.8°C 40.3°F4.6°C 92% 3.0 mph SE4.8 kmh SE 8.0 mph12.9 kmh 30.13 in1020.3 mb 0.11 in2.8 mm 0.00 in0.0 mm 0.38 in9.7 mm
04:55 PM 42.5°F5.8°C 40.3°F4.6°C 92% 11.0 mph SE17.7 kmh SE 11.0 mph17.7 kmh 30.13 in1020.3 mb 0.11 in2.8 mm 0.00 in0.0 mm 0.38 in9.7 mm
05:00 PM 42.6°F5.9°C 40.7°F4.8°C 93% 2.0 mph ESE3.2 kmh ESE 11.0 mph17.7 kmh 30.12 in1020.0 mb 0.12 in3.0 mm 0.01 in0.3 mm 0.39 in9.9 mm
05:05 PM 42.9°F6.1°C 41.0°F5.0°C 93% Calm Calm 7.0 mph11.3 kmh 30.13 in1020.3 mb 0.09 in2.3 mm 0.00 in0.0 mm 0.39 in9.9 mm
05:10 PM 43.2°F6.2°C 41.3°F5.2°C 93% 5.0 mph SE8.0 kmh SE 7.0 mph11.3 kmh 30.12 in1020.0 mb 0.09 in2.3 mm 0.00 in0.0 mm 0.39 in9.9 mm
05:15 PM 43.5°F6.4°C 41.6°F5.3°C 93% 6.0 mph SE9.7 kmh SE 11.0 mph17.7 kmh 30.12 in1020.0 mb 0.09 in2.3 mm 0.00 in0.0 mm 0.39 in9.9 mm
05:20 PM 43.7°F6.5°C 41.8°F5.4°C 93% 4.0 mph SE6.4 kmh SE 8.0 mph12.9 kmh 30.13 in1020.3 mb 0.07 in1.8 mm 0.00 in0.0 mm 0.39 in9.9 mm
05:25 PM 43.7°F6.5°C 41.8°F5.4°C 93% 5.0 mph S8.0 kmh S 8.0 mph12.9 kmh 30.13 in1020.3 mb 0.07 in1.8 mm 0.00 in0.0 mm 0.39 in9.9 mm
05:30 PM 43.7°F6.5°C 41.8°F5.4°C 93% 3.0 mph SE4.8 kmh SE 10.0 mph16.1 kmh 30.12 in1020.0 mb 0.07 in1.8 mm 0.00 in0.0 mm 0.39 in9.9 mm
05:35 PM 43.8°F6.6°C 41.9°F5.5°C 93% 1.0 mph SE1.6 kmh SE 12.0 mph19.3 kmh 30.13 in1020.3 mb 0.05 in1.3 mm 0.00 in0.0 mm 0.39 in9.9 mm
05:40 PM 43.8°F6.6°C 41.9°F5.5°C 93% 5.0 mph SE8.0 kmh SE 12.0 mph19.3 kmh 30.12 in1020.0 mb 0.05 in1.3 mm 0.00 in0.0 mm 0.39 in9.9 mm
05:50 PM 43.9°F6.6°C 42.0°F5.6°C 93% 8.0 mph SSE12.9 kmh SSE 9.0 mph14.5 kmh 30.12 in1020.0 mb 0.02 in0.5 mm 0.00 in0.0 mm 0.39 in9.9 mm
05:55 PM 43.9°F6.6°C 42.0°F5.6°C 93% 8.0 mph S12.9 kmh S 9.0 mph14.5 kmh 30.12 in1020.0 mb 0.02 in0.5 mm 0.00 in0.0 mm 0.39 in9.9 mm
06:00 PM 43.9°F6.6°C 42.0°F5.6°C 93% 2.0 mph SSE3.2 kmh SSE 9.0 mph14.5 kmh 30.12 in1020.0 mb 0.02 in0.5 mm 0.00 in0.0 mm 0.39 in9.9 mm
06:05 PM 43.8°F6.6°C 41.9°F5.5°C 93% 2.0 mph SSE3.2 kmh SSE 6.0 mph9.7 kmh 30.12 in1020.0 mb 0.00 in0.0 mm 0.00 in0.0 mm 0.39 in9.9 mm
06:10 PM 43.7°F6.5°C 41.8°F5.4°C 93% 4.0 mph SSE6.4 kmh SSE 7.0 mph11.3 kmh 30.12 in1020.0 mb 0.00 in0.0 mm 0.00 in0.0 mm 0.39 in9.9 mm
06:15 PM 43.5°F6.4°C 41.6°F5.3°C 93% 2.0 mph S3.2 kmh S 8.0 mph12.9 kmh 30.12 in1020.0 mb 0.00 in0.0 mm 0.00 in0.0 mm 0.39 in9.9 mm
06:20 PM 43.4°F6.3°C 41.5°F5.3°C 93% 3.0 mph SSE4.8 kmh SSE 7.0 mph11.3 kmh 30.12 in1020.0 mb 0.00 in0.0 mm 0.00 in0.0 mm 0.39 in9.9 mm
06:25 PM 43.3°F6.3°C 41.1°F5.1°C 92% 2.0 mph S3.2 kmh S 7.0 mph11.3 kmh 30.12 in1020.0 mb 0.00 in0.0 mm 0.00 in0.0 mm 0.39 in9.9 mm
06:30 PM 43.1°F6.2°C 40.9°F4.9°C 92% 3.0 mph S4.8 kmh S 7.0 mph11.3 kmh 30.12 in1020.0 mb 0.00 in0.0 mm 0.00 in0.0 mm 0.39 in9.9 mm
06:35 PM 43.0°F6.1°C 40.8°F4.9°C 92% 4.0 mph S6.4 kmh S 7.0 mph11.3 kmh 30.11 in1019.6 mb 0.00 in0.0 mm 0.00 in0.0 mm 0.39 in9.9 mm
06:40 PM 42.9°F6.1°C 41.0°F5.0°C 93% 5.0 mph SE8.0 kmh SE 8.0 mph12.9 kmh 30.11 in1019.6 mb 0.00 in0.0 mm 0.00 in0.0 mm 0.39 in9.9 mm
06:45 PM 42.9°F6.1°C 41.0°F5.0°C 93% 2.0 mph SE3.2 kmh SE 8.0 mph12.9 kmh 30.11 in1019.6 mb 0.01 in0.3 mm 0.12 in3.0 mm 0.40 in10.2 mm
06:50 PM 42.8°F6.0°C 40.9°F4.9°C 93% 5.0 mph SE8.0 kmh SE 8.0 mph12.9 kmh 30.11 in1019.6 mb 0.01 in0.3 mm 0.00 in0.0 mm 0.40 in10.2 mm
06:55 PM 42.8°F6.0°C 40.9°F4.9°C 93% 2.0 mph SE3.2 kmh SE 8.0 mph12.9 kmh 30.11 in1019.6 mb 0.01 in0.3 mm 0.00 in0.0 mm 0.40 in10.2 mm
07:05 PM 42.8°F6.0°C 40.9°F4.9°C 93% 2.0 mph SSE3.2 kmh SSE 8.0 mph12.9 kmh 30.10 in1019.3 mb 0.03 in0.8 mm 0.02 in0.5 mm 0.42 in10.7 mm
07:10 PM 42.7°F5.9°C 40.8°F4.9°C 93% 7.0 mph SSE11.3 kmh SSE 8.0 mph12.9 kmh 30.11 in1019.6 mb 0.03 in0.8 mm 0.00 in0.0 mm 0.42 in10.7 mm
07:15 PM 42.7°F5.9°C 40.8°F4.9°C 93% 3.0 mph SE4.8 kmh SE 10.0 mph16.1 kmh 30.10 in1019.3 mb 0.03 in0.8 mm 0.00 in0.0 mm 0.42 in10.7 mm
07:20 PM 42.7°F5.9°C 40.8°F4.9°C 93% 4.0 mph S6.4 kmh S 6.0 mph9.7 kmh 30.10 in1019.3 mb 0.03 in0.8 mm 0.00 in0.0 mm 0.42 in10.7 mm
07:25 PM 42.7°F5.9°C 40.8°F4.9°C 93% 5.0 mph S8.0 kmh S 9.0 mph14.5 kmh 30.10 in1019.3 mb 0.04 in1.0 mm 0.12 in3.0 mm 0.43 in10.9 mm
07:30 PM 42.7°F5.9°C 40.8°F4.9°C 93% 2.0 mph SSE3.2 kmh SSE 9.0 mph14.5 kmh 30.10 in1019.3 mb 0.05 in1.3 mm 0.12 in3.0 mm 0.44 in11.2 mm
07:35 PM 42.7°F5.9°C 40.8°F4.9°C 93% 4.0 mph S6.4 kmh S 6.0 mph9.7 kmh 30.10 in1019.3 mb 0.05 in1.3 mm 0.00 in0.0 mm 0.44 in11.2 mm
07:40 PM 42.6°F5.9°C 40.7°F4.8°C 93% 4.0 mph SSE6.4 kmh SSE 7.0 mph11.3 kmh 30.10 in1019.3 mb 0.05 in1.3 mm 0.00 in0.0 mm 0.44 in11.2 mm
07:45 PM 42.6°F5.9°C 40.7°F4.8°C 93% 4.0 mph S6.4 kmh S 7.0 mph11.3 kmh 30.10 in1019.3 mb 0.05 in1.3 mm 0.00 in0.0 mm 0.44 in11.2 mm
07:50 PM 42.6°F5.9°C 40.7°F4.8°C 93% 7.0 mph S11.3 kmh S 8.0 mph12.9 kmh 30.10 in1019.3 mb 0.04 in1.0 mm 0.00 in0.0 mm 0.44 in11.2 mm
07:55 PM 42.6°F5.9°C 40.7°F4.8°C 93% 3.0 mph S4.8 kmh S 9.0 mph14.5 kmh 30.10 in1019.3 mb 0.04 in1.0 mm 0.00 in0.0 mm 0.44 in11.2 mm
08:00 PM 42.5°F5.8°C 40.6°F4.8°C 93% 7.0 mph S11.3 kmh S 9.0 mph14.5 kmh 30.10 in1019.3 mb 0.04 in1.0 mm 0.00 in0.0 mm 0.44 in11.2 mm
08:05 PM 42.5°F5.8°C 40.6°F4.8°C 93% 7.0 mph S11.3 kmh S 9.0 mph14.5 kmh 30.10 in1019.3 mb 0.03 in0.8 mm 0.00 in0.0 mm 0.44 in11.2 mm
08:10 PM 42.5°F5.8°C 40.6°F4.8°C 93% 4.0 mph S6.4 kmh S 9.0 mph14.5 kmh 30.10 in1019.3 mb 0.03 in0.8 mm 0.00 in0.0 mm 0.44 in11.2 mm
08:15 PM 42.5°F5.8°C 40.6°F4.8°C 93% 2.0 mph SE3.2 kmh SE 9.0 mph14.5 kmh 30.10 in1019.3 mb 0.03 in0.8 mm 0.00 in0.0 mm 0.44 in11.2 mm
08:20 PM 42.4°F5.8°C 40.5°F4.7°C 93% 3.0 mph SE4.8 kmh SE 7.0 mph11.3 kmh 30.09 in1019.0 mb 0.03 in0.8 mm 0.00 in0.0 mm 0.44 in11.2 mm
08:25 PM 42.4°F5.8°C 40.5°F4.7°C 93% 2.0 mph SE3.2 kmh SE 8.0 mph12.9 kmh 30.09 in1019.0 mb 0.03 in0.8 mm 0.00 in0.0 mm 0.44 in11.2 mm
08:30 PM 42.4°F5.8°C 40.8°F4.9°C 94% 7.0 mph SSE11.3 kmh SSE 9.0 mph14.5 kmh 30.09 in1019.0 mb 0.03 in0.8 mm 0.00 in0.0 mm 0.44 in11.2 mm
08:45 PM 42.4°F5.8°C 40.8°F4.9°C 94% 6.0 mph SE9.7 kmh SE 12.0 mph19.3 kmh 30.08 in1018.6 mb 0.01 in0.3 mm 0.00 in0.0 mm 0.44 in11.2 mm
08:50 PM 42.4°F5.8°C 40.8°F4.9°C 94% 5.0 mph S8.0 kmh S 11.0 mph17.7 kmh 30.08 in1018.6 mb 0.01 in0.3 mm 0.00 in0.0 mm 0.44 in11.2 mm
08:55 PM 42.4°F5.8°C 40.8°F4.9°C 94% 4.0 mph SE6.4 kmh SE 11.0 mph17.7 kmh 30.08 in1018.6 mb 0.01 in0.3 mm 0.00 in0.0 mm 0.44 in11.2 mm
09:00 PM 42.4°F5.8°C 40.8°F4.9°C 94% 3.0 mph S4.8 kmh S 11.0 mph17.7 kmh 30.08 in1018.6 mb 0.01 in0.3 mm 0.00 in0.0 mm 0.44 in11.2 mm
09:05 PM 42.4°F5.8°C 40.8°F4.9°C 94% 6.0 mph SE9.7 kmh SE 14.0 mph22.5 kmh 30.08 in1018.6 mb 0.01 in0.3 mm 0.00 in0.0 mm 0.44 in11.2 mm
09:10 PM 42.4°F5.8°C 40.8°F4.9°C 94% 8.0 mph SE12.9 kmh SE 14.0 mph22.5 kmh 30.07 in1018.3 mb 0.01 in0.3 mm 0.00 in0.0 mm 0.44 in11.2 mm
09:15 PM 42.4°F5.8°C 40.8°F4.9°C 94% 9.0 mph SE14.5 kmh SE 14.0 mph22.5 kmh 30.07 in1018.3 mb 0.01 in0.3 mm 0.00 in0.0 mm 0.44 in11.2 mm
09:20 PM 42.4°F5.8°C 40.8°F4.9°C 94% 5.0 mph SE8.0 kmh SE 10.0 mph16.1 kmh 30.07 in1018.3 mb 0.00 in0.0 mm 0.00 in0.0 mm 0.44 in11.2 mm
09:25 PM 42.4°F5.8°C 40.8°F4.9°C 94% 4.0 mph SSE6.4 kmh SSE 10.0 mph16.1 kmh 30.07 in1018.3 mb 0.00 in0.0 mm 0.00 in0.0 mm 0.44 in11.2 mm
09:30 PM 42.4°F5.8°C 40.8°F4.9°C 94% 4.0 mph SE6.4 kmh SE 10.0 mph16.1 kmh 30.07 in1018.3 mb 0.00 in0.0 mm 0.00 in0.0 mm 0.44 in11.2 mm
09:35 PM 42.4°F5.8°C 40.8°F4.9°C 94% 5.0 mph SE8.0 kmh SE 8.0 mph12.9 kmh 30.07 in1018.3 mb 0.00 in0.0 mm 0.00 in0.0 mm 0.44 in11.2 mm
09:40 PM 42.4°F5.8°C 40.8°F4.9°C 94% 7.0 mph SE11.3 kmh SE 11.0 mph17.7 kmh 30.07 in1018.3 mb 0.00 in0.0 mm 0.00 in0.0 mm 0.44 in11.2 mm
09:45 PM 42.4°F5.8°C 40.8°F4.9°C 94% 3.0 mph SE4.8 kmh SE 12.0 mph19.3 kmh 30.07 in1018.3 mb 0.01 in0.3 mm 0.12 in3.0 mm 0.45 in11.4 mm
09:50 PM 42.4°F5.8°C 40.8°F4.9°C 94% 3.0 mph SE4.8 kmh SE 10.0 mph16.1 kmh 30.06 in1017.9 mb 0.01 in0.3 mm 0.00 in0.0 mm 0.45 in11.4 mm
09:55 PM 42.4°F5.8°C 40.8°F4.9°C 94% 4.0 mph SSE6.4 kmh SSE 10.0 mph16.1 kmh 30.06 in1017.9 mb 0.01 in0.3 mm 0.00 in0.0 mm 0.45 in11.4 mm
10:00 PM 42.4°F5.8°C 40.8°F4.9°C 94% 3.0 mph SSE4.8 kmh SSE 10.0 mph16.1 kmh 30.06 in1017.9 mb 0.01 in0.3 mm 0.00 in0.0 mm 0.45 in11.4 mm
10:05 PM 42.5°F5.8°C 40.9°F4.9°C 94% 5.0 mph SE8.0 kmh SE 7.0 mph11.3 kmh 30.06 in1017.9 mb 0.01 in0.3 mm 0.00 in0.0 mm 0.45 in11.4 mm
10:10 PM 42.6°F5.9°C 41.0°F5.0°C 94% 4.0 mph SSE6.4 kmh SSE 7.0 mph11.3 kmh 30.06 in1017.9 mb 0.01 in0.3 mm 0.00 in0.0 mm 0.45 in11.4 mm
10:15 PM 42.6°F5.9°C 41.0°F5.0°C 94% 3.0 mph SSE4.8 kmh SSE 8.0 mph12.9 kmh 30.06 in1017.9 mb 0.01 in0.3 mm 0.00 in0.0 mm 0.45 in11.4 mm
10:20 PM 42.6°F5.9°C 41.0°F5.0°C 94% 6.0 mph SE9.7 kmh SE 7.0 mph11.3 kmh 30.06 in1017.9 mb 0.01 in0.3 mm 0.00 in0.0 mm 0.45 in11.4 mm
10:35 PM 42.8°F6.0°C 41.2°F5.1°C 94% 1.0 mph SSE1.6 kmh SSE 8.0 mph12.9 kmh 30.05 in1017.6 mb 0.01 in0.3 mm 0.00 in0.0 mm 0.45 in11.4 mm
10:50 PM 42.8°F6.0°C 41.2°F5.1°C 94% 6.0 mph S9.7 kmh S 7.0 mph11.3 kmh 30.04 in1017.3 mb 0.00 in0.0 mm 0.00 in0.0 mm 0.45 in11.4 mm
10:55 PM 42.9°F6.1°C 41.3°F5.2°C 94% 5.0 mph SE8.0 kmh SE 7.0 mph11.3 kmh 30.04 in1017.3 mb 0.00 in0.0 mm 0.00 in0.0 mm 0.45 in11.4 mm
11:00 PM 42.9°F6.1°C 41.3°F5.2°C 94% 6.0 mph SE9.7 kmh SE 9.0 mph14.5 kmh 30.04 in1017.3 mb 0.00 in0.0 mm 0.00 in0.0 mm 0.45 in11.4 mm
11:05 PM 42.9°F6.1°C 41.3°F5.2°C 94% 6.0 mph S9.7 kmh S 10.0 mph16.1 kmh 30.04 in1017.3 mb 0.00 in0.0 mm 0.00 in0.0 mm 0.45 in11.4 mm
11:10 PM 42.9°F6.1°C 41.3°F5.2°C 94% 3.0 mph SSE4.8 kmh SSE 10.0 mph16.1 kmh 30.04 in1017.3 mb 0.00 in0.0 mm 0.00 in0.0 mm 0.45 in11.4 mm
11:15 PM 42.9°F6.1°C 41.3°F5.2°C 94% 3.0 mph S4.8 kmh S 10.0 mph16.1 kmh 30.04 in1017.3 mb 0.00 in0.0 mm 0.00 in0.0 mm 0.45 in11.4 mm
11:20 PM 42.8°F6.0°C 41.2°F5.1°C 94% 2.0 mph S3.2 kmh S 7.0 mph11.3 kmh 30.04 in1017.3 mb 0.00 in0.0 mm 0.00 in0.0 mm 0.45 in11.4 mm
11:25 PM 42.8°F6.0°C 41.2°F5.1°C 94% 3.0 mph SSE4.8 kmh SSE 9.0 mph14.5 kmh 30.04 in1017.3 mb 0.00 in0.0 mm 0.00 in0.0 mm 0.45 in11.4 mm
11:30 PM 42.8°F6.0°C 41.2°F5.1°C 94% 4.0 mph S6.4 kmh S 9.0 mph14.5 kmh 30.04 in1017.3 mb 0.00 in0.0 mm 0.00 in0.0 mm 0.45 in11.4 mm
11:35 PM 42.8°F6.0°C 41.2°F5.1°C 94% 3.0 mph S4.8 kmh S 6.0 mph9.7 kmh 30.04 in1017.3 mb 0.00 in0.0 mm 0.00 in0.0 mm 0.45 in11.4 mm
11:40 PM 42.6°F5.9°C 41.0°F5.0°C 94% 4.0 mph S6.4 kmh S 6.0 mph9.7 kmh 30.04 in1017.3 mb 0.00 in0.0 mm 0.00 in0.0 mm 0.45 in11.4 mm
11:45 PM 42.6°F5.9°C 41.0°F5.0°C 94% 6.0 mph S9.7 kmh S 6.0 mph9.7 kmh 30.03 in1016.9 mb 0.00 in0.0 mm 0.00 in0.0 mm 0.45 in11.4 mm
11:50 PM 42.5°F5.8°C 40.9°F4.9°C 94% 4.0 mph S6.4 kmh S 7.0 mph11.3 kmh 30.03 in1016.9 mb 0.00 in0.0 mm 0.00 in0.0 mm 0.45 in11.4 mm
11:55 PM 42.5°F5.8°C 40.9°F4.9°C 94% 6.0 mph S9.7 kmh S 8.0 mph12.9 kmh 30.03 in1016.9 mb 0.00 in0.0 mm 0.00 in0.0 mm 0.45 in11.4 mm